createdAt,value
2019-05-03T00:02:27.472Z,77.50
2019-05-03T00:04:59.683Z,77.40
2019-05-03T00:07:28.926Z,77.20
2019-05-03T00:09:58.175Z,77.40
2019-05-03T00:12:27.275Z,77.60
2019-05-03T00:15:02.611Z,77.60
2019-05-03T00:17:32.482Z,78.30
2019-05-03T00:20:02.303Z,78.70
2019-05-03T00:22:32.355Z,78.90
2019-05-03T00:25:05.873Z,79.10
2019-05-03T00:27:32.568Z,78.70
2019-05-03T00:30:02.795Z,78.90
2019-05-03T00:32:32.220Z,78.70
2019-05-03T00:35:03.289Z,78.80
2019-05-03T00:37:42.768Z,79.00
2019-05-03T00:40:16.807Z,79.20
2019-05-03T00:42:45.903Z,78.90
2019-05-03T00:45:15.142Z,78.60
2019-05-03T00:47:44.231Z,78.30
2019-05-03T00:50:13.451Z,78.40
2019-05-03T00:52:42.570Z,78.50
2019-05-03T00:55:16.942Z,78.90
2019-05-03T00:57:42.530Z,78.50
2019-05-03T01:00:12.403Z,77.70
2019-05-03T01:02:42.418Z,77.60
2019-05-03T01:05:12.022Z,77.50
2019-05-03T01:07:42.239Z,76.10
2019-05-03T01:10:13.412Z,75.90
2019-05-03T01:12:42.487Z,76.00
2019-05-03T01:15:13.461Z,76.30
2019-05-03T01:17:42.576Z,76.50
2019-05-03T01:20:12.013Z,76.80
2019-05-03T01:22:42.507Z,77.20
2019-05-03T01:25:12.138Z,77.60
2019-05-03T01:27:42.736Z,77.80
2019-05-03T01:30:12.712Z,78.10
2019-05-03T01:32:41.890Z,78.00
2019-05-03T01:35:12.302Z,77.80
2019-05-03T01:37:42.461Z,78.00
2019-05-03T01:40:12.590Z,78.10
2019-05-03T01:42:42.606Z,78.50
2019-05-03T01:45:12.100Z,78.70
2019-05-03T01:47:48.844Z,78.50
2019-05-03T01:50:28.830Z,78.80
2019-05-03T01:52:59.586Z,78.60
2019-05-03T01:55:46.896Z,78.70
2019-05-03T01:58:16.407Z,79.70
2019-05-03T02:00:45.562Z,79.80
2019-05-03T02:03:16.651Z,80.10
2019-05-03T02:05:47.395Z,80.20
2019-05-03T02:08:16.509Z,80.20
2019-05-03T02:10:45.715Z,80.60
2019-05-03T02:13:14.859Z,80.30
2019-05-03T02:15:43.940Z,80.50
2019-05-03T02:18:15.263Z,80.40
2019-05-03T02:20:44.708Z,80.00
2019-05-03T02:23:13.823Z,80.30
2019-05-03T02:25:55.403Z,80.20
2019-05-03T02:28:13.679Z,80.00
2019-05-03T02:30:44.020Z,79.60
2019-05-03T02:33:14.018Z,79.50
2019-05-03T02:35:43.234Z,79.00
2019-05-03T02:38:13.306Z,78.70
2019-05-03T02:40:43.273Z,78.90
2019-05-03T02:43:25.989Z,79.00
2019-05-03T02:46:05.851Z,79.70
2019-05-03T02:48:37.155Z,80.20
2019-05-03T02:51:06.730Z,80.60
2019-05-03T02:53:36.251Z,81.50
2019-05-03T02:56:15.065Z,81.30
2019-05-03T02:58:36.173Z,81.70
2019-05-03T03:01:06.727Z,81.80
2019-05-03T03:03:36.761Z,81.40
2019-05-03T03:06:06.998Z,81.60
2019-05-03T03:08:37.850Z,82.00
2019-05-03T03:11:08.922Z,81.70
2019-05-03T03:13:38.990Z,81.60
2019-05-03T03:16:10.076Z,82.00
2019-05-03T03:18:41.010Z,81.10
2019-05-03T03:21:20.051Z,81.20
2019-05-03T03:24:09.623Z,81.40
2019-05-03T03:26:43.087Z,81.40
2019-05-03T03:29:12.481Z,81.10
2019-05-03T03:32:20.089Z,80.90
2019-05-03T03:35:01.798Z,81.00
2019-05-03T03:37:26.184Z,81.60
2019-05-03T03:39:56.102Z,81.70
2019-05-03T03:42:25.931Z,81.90
2019-05-03T03:44:57.435Z,81.70
2019-05-03T03:47:29.846Z,81.50
2019-05-03T03:49:59.695Z,80.90
2019-05-03T03:52:31.849Z,80.90
2019-05-03T03:55:06.184Z,81.10
2019-05-03T03:57:35.733Z,81.00
2019-05-03T04:00:08.969Z,80.80
2019-05-03T04:02:37.834Z,80.80
2019-05-03T04:05:08.344Z,80.60
2019-05-03T04:07:38.702Z,80.60
2019-05-03T04:10:08.431Z,80.80
2019-05-03T04:12:38.957Z,81.30
2019-05-03T04:15:26.562Z,81.40
2019-05-03T04:18:12.661Z,81.10
2019-05-03T04:20:41.869Z,80.60
2019-05-03T04:23:11.134Z,80.20
2019-05-03T04:25:41.084Z,80.00
2019-05-03T04:28:10.256Z,80.30
2019-05-03T04:30:39.493Z,80.40
2019-05-03T04:33:08.582Z,80.70
2019-05-03T04:35:37.700Z,81.20
2019-05-03T04:38:07.078Z,81.00
2019-05-03T04:40:36.234Z,81.20
2019-05-03T04:43:06.031Z,81.40
2019-05-03T04:45:36.699Z,81.20
2019-05-03T04:48:06.661Z,81.20
2019-05-03T04:50:36.695Z,81.20
2019-05-03T04:53:06.187Z,81.00
2019-05-03T04:55:36.307Z,80.50
2019-05-03T04:58:05.693Z,81.00
2019-05-03T05:00:35.842Z,81.40
2019-05-03T05:03:05.924Z,81.50
2019-05-03T05:05:36.331Z,81.30
2019-05-03T05:08:06.044Z,81.40
2019-05-03T05:10:36.416Z,81.20
2019-05-03T05:13:06.257Z,81.50
2019-05-03T05:15:35.548Z,80.30
2019-05-03T05:18:06.712Z,80.90
2019-05-03T05:20:45.275Z,80.30
2019-05-03T05:23:14.765Z,81.30
2019-05-03T05:25:55.015Z,81.50
2019-05-03T05:28:25.760Z,81.20
2019-05-03T05:30:54.838Z,81.10
2019-05-03T05:33:25.197Z,80.20
2019-05-03T05:35:54.804Z,80.10
2019-05-03T05:38:25.624Z,79.80
2019-05-03T05:40:55.492Z,79.80
2019-05-03T05:43:25.526Z,79.40
2019-05-03T05:45:56.306Z,79.80
2019-05-03T05:48:34.827Z,79.50
2019-05-03T05:51:04.436Z,79.20
2019-05-03T05:53:35.732Z,79.50
2019-05-03T05:56:08.915Z,79.50
2019-05-03T05:58:39.790Z,79.00
2019-05-03T06:01:24.865Z,78.80
2019-05-03T06:03:55.020Z,77.70
2019-05-03T06:06:25.604Z,78.40
2019-05-03T06:09:08.212Z,78.80
2019-05-03T06:11:38.828Z,78.90
2019-05-03T06:14:12.553Z,79.10
2019-05-03T06:16:52.316Z,78.00
2019-05-03T06:19:25.593Z,78.60
2019-05-03T06:22:07.461Z,79.00
2019-05-03T06:24:40.828Z,78.80
2019-05-03T06:27:11.434Z,78.40
2019-05-03T06:29:41.040Z,79.00
2019-05-03T06:32:11.935Z,79.10
2019-05-03T06:34:40.974Z,78.90
2019-05-03T06:37:14.796Z,77.80
2019-05-03T06:39:45.404Z,78.30
2019-05-03T06:42:19.003Z,78.10
2019-05-03T06:44:45.605Z,78.20
2019-05-03T06:47:15.001Z,77.60
2019-05-03T06:49:48.167Z,76.90
2019-05-03T06:52:14.885Z,77.10
2019-05-03T06:54:44.932Z,78.00
2019-05-03T06:57:16.339Z,79.10
2019-05-03T06:59:49.926Z,78.60
2019-05-03T07:02:20.730Z,76.40
2019-05-03T07:05:05.079Z,75.70
2019-05-03T07:07:41.462Z,76.60
2019-05-03T07:10:12.237Z,75.50
2019-05-03T07:12:59.239Z,75.90
2019-05-03T07:15:29.026Z,77.90
2019-05-03T07:17:58.127Z,75.30
2019-05-03T07:20:27.105Z,75.60
2019-05-03T07:22:56.329Z,76.40
2019-05-03T07:25:25.863Z,76.10
2019-05-03T07:27:55.694Z,75.30
2019-05-03T07:30:25.293Z,75.80
2019-05-03T07:32:58.422Z,75.40
2019-05-03T07:35:27.456Z,75.30
2019-05-03T07:37:56.413Z,74.30
2019-05-03T07:40:25.585Z,72.60
2019-05-03T07:42:55.414Z,72.00
2019-05-03T07:45:25.448Z,73.00
2019-05-03T07:47:55.943Z,73.30
2019-05-03T07:50:26.004Z,72.70
2019-05-03T07:52:55.804Z,71.50
2019-05-03T07:55:45.524Z,71.30
2019-05-03T07:58:16.490Z,70.60
2019-05-03T08:00:45.798Z,71.10
2019-05-03T08:03:15.451Z,70.60
2019-05-03T08:05:45.442Z,70.50
2019-05-03T08:08:15.080Z,70.90
2019-05-03T08:10:45.033Z,71.20
2019-05-03T08:13:15.056Z,72.30
2019-05-03T08:15:45.129Z,66.70
2019-05-03T08:18:15.295Z,61.40
2019-05-03T08:20:45.389Z,58.80
2019-05-03T08:23:26.723Z,58.10
2019-05-03T08:25:45.025Z,57.80
2019-05-03T08:28:14.755Z,56.20
2019-05-03T08:30:54.916Z,56.80
2019-05-03T08:33:41.783Z,59.80
2019-05-03T08:36:10.796Z,55.20
2019-05-03T08:38:39.776Z,53.70
2019-05-03T08:41:10.377Z,55.50
2019-05-03T08:43:39.348Z,54.20
2019-05-03T08:46:08.318Z,54.60
2019-05-03T08:48:37.287Z,53.80
2019-05-03T08:51:07.040Z,52.80
2019-05-03T08:53:36.641Z,54.50
2019-05-03T08:56:06.578Z,56.10
2019-05-03T08:58:35.544Z,55.40
2019-05-03T09:01:05.577Z,55.30
2019-05-03T09:03:37.960Z,55.40
2019-05-03T09:06:06.243Z,55.20
2019-05-03T09:08:35.515Z,59.10
2019-05-03T09:11:06.349Z,52.40
2019-05-03T09:13:37.018Z,53.30
2019-05-03T09:16:06.518Z,53.60
2019-05-03T09:18:35.522Z,50.00
2019-05-03T09:21:05.144Z,48.00
2019-05-03T09:23:35.671Z,46.50
2019-05-03T09:26:05.204Z,46.90
2019-05-03T09:28:34.904Z,46.10
2019-05-03T09:31:04.664Z,51.10
2019-05-03T09:33:35.537Z,47.60
2019-05-03T09:36:05.340Z,49.50
2019-05-03T09:38:35.083Z,51.20
2019-05-03T09:41:05.216Z,52.20
2019-05-03T09:43:35.679Z,49.90
2019-05-03T09:46:05.198Z,49.20
2019-05-03T09:48:34.778Z,50.40
2019-05-03T09:51:05.155Z,50.00
2019-05-03T09:53:36.107Z,50.30
2019-05-03T09:56:05.201Z,50.40
2019-05-03T09:58:37.748Z,52.40
2019-05-03T10:01:06.268Z,51.20
2019-05-03T10:03:36.533Z,53.90
2019-05-03T10:06:06.419Z,54.30
2019-05-03T10:08:35.828Z,52.90
2019-05-03T10:11:11.873Z,51.30
2019-05-03T10:13:41.956Z,52.70
2019-05-03T10:16:11.458Z,51.30
2019-05-03T10:18:40.497Z,52.50
2019-05-03T10:21:09.449Z,53.80
2019-05-03T10:23:39.465Z,52.70
2019-05-03T10:26:09.178Z,51.40
2019-05-03T10:28:38.217Z,51.00
2019-05-03T10:31:07.896Z,52.60
2019-05-03T10:33:41.365Z,52.90
2019-05-03T10:36:10.431Z,54.20
2019-05-03T10:38:39.460Z,50.30
2019-05-03T10:41:08.499Z,51.00
2019-05-03T10:43:37.480Z,51.80
2019-05-03T10:46:06.875Z,51.60
2019-05-03T10:48:35.876Z,50.20
2019-05-03T10:51:05.180Z,49.20
2019-05-03T10:53:35.849Z,49.70
2019-05-03T10:56:22.776Z,50.50
2019-05-03T10:59:06.321Z,53.40
2019-05-03T11:01:46.550Z,52.30
2019-05-03T11:04:15.578Z,51.50
2019-05-03T11:06:45.725Z,49.80
2019-05-03T11:09:15.403Z,50.00
2019-05-03T11:11:45.387Z,47.80
2019-05-03T11:14:15.041Z,47.20
2019-05-03T11:16:46.086Z,48.30
2019-05-03T11:19:15.609Z,47.80
2019-05-03T11:21:45.565Z,48.30
2019-05-03T11:24:14.958Z,49.70
2019-05-03T11:26:45.744Z,47.90
2019-05-03T11:29:15.770Z,48.20
2019-05-03T11:31:59.244Z,47.90
2019-05-03T11:34:29.905Z,47.40
2019-05-03T11:37:16.757Z,49.60
2019-05-03T11:39:45.775Z,48.60
2019-05-03T11:42:15.309Z,49.70
2019-05-03T11:44:45.478Z,45.80
2019-05-03T11:47:15.042Z,47.40
2019-05-03T11:49:45.465Z,45.70
2019-05-03T11:52:15.874Z,47.10
2019-05-03T11:54:45.523Z,47.20
2019-05-03T11:57:16.206Z,47.70
2019-05-03T11:59:45.347Z,47.00
2019-05-03T12:02:31.311Z,46.30
2019-05-03T12:05:02.105Z,48.90
2019-05-03T12:07:39.766Z,48.60
2019-05-03T12:10:17.747Z,48.70
2019-05-03T12:12:44.684Z,46.50
2019-05-03T12:15:15.744Z,45.20
2019-05-03T12:17:54.441Z,47.60
2019-05-03T12:20:18.711Z,48.70
2019-05-03T12:22:48.517Z,48.20
2019-05-03T12:25:18.831Z,48.20
2019-05-03T12:27:48.419Z,47.40
2019-05-03T12:30:18.119Z,48.90
2019-05-03T12:32:47.186Z,47.60
2019-05-03T12:35:16.206Z,48.10
2019-05-03T12:37:45.186Z,46.90
2019-05-03T12:40:15.138Z,48.90
2019-05-03T12:42:45.417Z,48.60
2019-05-03T12:45:15.347Z,50.60
2019-05-03T12:47:45.376Z,49.10
2019-05-03T12:50:15.748Z,49.40
2019-05-03T12:52:50.252Z,53.00
2019-05-03T12:55:15.899Z,48.10
2019-05-03T12:57:45.730Z,49.00
2019-05-03T13:00:26.851Z,51.20
2019-05-03T13:03:00.637Z,48.10
2019-05-03T13:05:29.778Z,47.80
2019-05-03T13:08:18.057Z,46.30
2019-05-03T13:10:47.013Z,49.50
2019-05-03T13:13:16.395Z,48.00
2019-05-03T13:15:45.379Z,49.40
2019-05-03T13:18:15.682Z,48.70
2019-05-03T13:20:45.443Z,45.70
2019-05-03T13:23:14.563Z,46.90
2019-05-03T13:25:44.741Z,47.00
2019-05-03T13:28:15.314Z,48.80
2019-05-03T13:30:45.239Z,46.00
2019-05-03T13:33:15.125Z,47.30
2019-05-03T13:35:44.772Z,48.60
2019-05-03T13:38:14.153Z,46.30
2019-05-03T13:40:45.194Z,45.20
2019-05-03T13:43:15.001Z,46.00
2019-05-03T13:45:44.997Z,45.40
2019-05-03T13:48:15.565Z,45.70
2019-05-03T13:50:44.890Z,45.40
2019-05-03T13:53:16.178Z,46.20
2019-05-03T13:55:45.258Z,43.50
2019-05-03T13:58:14.813Z,45.60
2019-05-03T14:00:45.307Z,45.70
2019-05-03T14:03:15.241Z,46.00
2019-05-03T14:05:44.719Z,46.70
2019-05-03T14:08:15.705Z,47.40
2019-05-03T14:10:45.496Z,45.80
2019-05-03T14:13:15.025Z,46.50
2019-05-03T14:15:45.335Z,47.90
2019-05-03T14:18:16.108Z,47.90
2019-05-03T14:20:46.776Z,48.70
2019-05-03T14:23:15.757Z,48.50
2019-05-03T14:25:44.795Z,47.80
2019-05-03T14:28:14.576Z,48.50
2019-05-03T14:30:45.527Z,49.70
2019-05-03T14:33:14.915Z,50.50
2019-05-03T14:35:45.196Z,47.90
2019-05-03T14:38:15.110Z,47.60
2019-05-03T14:40:44.875Z,49.10
2019-05-03T14:43:15.473Z,48.00
2019-05-03T14:45:44.923Z,49.20
2019-05-03T14:48:15.239Z,51.60
2019-05-03T14:50:45.553Z,51.90
2019-05-03T14:53:15.029Z,52.50
2019-05-03T14:55:48.352Z,54.90
2019-05-03T14:58:21.182Z,56.60
2019-05-03T15:00:57.844Z,58.30
2019-05-03T15:03:28.476Z,57.60
2019-05-03T15:05:58.334Z,59.80
2019-05-03T15:08:27.994Z,58.00
2019-05-03T15:10:56.950Z,56.00
2019-05-03T15:13:26.012Z,57.70
2019-05-03T15:15:55.054Z,59.40
2019-05-03T15:18:25.608Z,59.70
2019-05-03T15:20:55.170Z,61.60
2019-05-03T15:23:25.431Z,62.00
2019-05-03T15:25:54.847Z,61.60
2019-05-03T15:28:25.022Z,61.20
2019-05-03T15:30:55.281Z,62.20
2019-05-03T15:33:24.594Z,64.30
2019-05-03T15:35:55.297Z,63.50
2019-05-03T15:38:24.481Z,61.40
2019-05-03T15:40:54.789Z,58.40
2019-05-03T15:43:28.684Z,59.10
2019-05-03T15:46:01.464Z,59.50
2019-05-03T15:48:32.384Z,57.10
2019-05-03T15:51:06.753Z,58.00
2019-05-03T15:53:35.799Z,58.10
2019-05-03T15:56:05.392Z,53.80
2019-05-03T15:58:34.554Z,57.30
2019-05-03T16:01:04.714Z,54.90
2019-05-03T16:03:35.717Z,53.90
2019-05-03T16:06:05.053Z,55.80
2019-05-03T16:08:34.090Z,56.10
2019-05-03T16:11:03.119Z,54.70
2019-05-03T16:13:32.176Z,55.40
2019-05-03T16:16:01.187Z,54.70
2019-05-03T16:18:30.195Z,54.40
2019-05-03T16:20:59.220Z,54.60
2019-05-03T16:23:28.220Z,54.20
2019-05-03T16:25:57.270Z,56.50
2019-05-03T16:28:27.930Z,56.60
2019-05-03T16:30:58.769Z,57.10
2019-05-03T16:33:28.345Z,58.00
2019-05-03T16:35:57.760Z,57.20
2019-05-03T16:38:26.740Z,57.00
2019-05-03T16:40:55.773Z,57.90
2019-05-03T16:43:25.663Z,58.00
2019-05-03T16:45:55.225Z,57.20
2019-05-03T16:48:24.821Z,58.00
2019-05-03T16:50:53.981Z,58.10
2019-05-03T16:53:23.221Z,58.10
2019-05-03T16:55:52.284Z,55.60
2019-05-03T16:58:21.268Z,57.60
2019-05-03T17:00:50.328Z,56.00
2019-05-03T17:03:21.009Z,58.00
2019-05-03T17:05:52.010Z,55.60
2019-05-03T17:08:22.634Z,55.80
2019-05-03T17:10:57.081Z,56.80
2019-05-03T17:13:26.171Z,55.90
2019-05-03T17:15:55.397Z,55.60
2019-05-03T17:18:24.725Z,57.70
2019-05-03T17:20:54.781Z,57.60
2019-05-03T17:23:24.636Z,58.00
2019-05-03T17:25:54.056Z,57.30
2019-05-03T17:28:24.771Z,55.60
2019-05-03T17:30:55.269Z,56.60
2019-05-03T17:33:25.330Z,56.30
2019-05-03T17:35:54.681Z,56.60
2019-05-03T17:38:23.910Z,58.10
2019-05-03T17:40:54.950Z,57.80
2019-05-03T17:43:28.491Z,56.10
2019-05-03T17:45:59.146Z,58.40
2019-05-03T17:48:28.193Z,60.80
2019-05-03T17:50:57.262Z,59.00
2019-05-03T17:53:30.545Z,61.20
2019-05-03T17:56:17.393Z,62.10
2019-05-03T17:58:55.116Z,60.60
2019-05-03T18:01:44.480Z,61.10
2019-05-03T18:04:17.535Z,60.80
2019-05-03T18:07:06.171Z,60.10
2019-05-03T18:09:36.860Z,59.30
2019-05-03T18:12:06.576Z,60.90
2019-05-03T18:14:35.549Z,59.80
2019-05-03T18:17:05.794Z,58.80
2019-05-03T18:19:35.013Z,60.00
2019-05-03T18:22:05.233Z,60.40
2019-05-03T18:24:35.213Z,58.40
2019-05-03T18:27:04.905Z,58.90
2019-05-03T18:29:34.626Z,59.20
2019-05-03T18:32:05.502Z,61.10
2019-05-03T18:34:34.788Z,58.50
2019-05-03T18:37:04.760Z,59.90
2019-05-03T18:39:34.663Z,61.60
2019-05-03T18:42:05.670Z,62.10
2019-05-03T18:44:42.361Z,63.60
2019-05-03T18:47:15.884Z,61.80
2019-05-03T18:49:44.959Z,61.80
2019-05-03T18:52:14.944Z,62.20
2019-05-03T18:54:44.525Z,61.80
2019-05-03T18:57:15.519Z,60.20
2019-05-03T18:59:44.997Z,61.20
2019-05-03T19:02:14.936Z,62.50
2019-05-03T19:04:51.409Z,63.80
2019-05-03T19:07:37.168Z,63.20
2019-05-03T19:10:15.393Z,63.70
2019-05-03T19:12:46.699Z,64.50
2019-05-03T19:15:15.740Z,63.90
2019-05-03T19:17:49.057Z,64.20
2019-05-03T19:20:19.223Z,64.70
2019-05-03T19:22:48.247Z,64.90
2019-05-03T19:25:17.501Z,65.00
2019-05-03T19:27:46.538Z,65.30
2019-05-03T19:30:16.346Z,66.20
2019-05-03T19:32:45.399Z,65.10
2019-05-03T19:35:15.749Z,63.10
2019-05-03T19:37:46.641Z,63.30
2019-05-03T19:40:16.065Z,64.20
2019-05-03T19:42:45.038Z,63.60
2019-05-03T19:45:15.324Z,63.00
2019-05-03T19:47:44.853Z,65.60
2019-05-03T19:50:15.695Z,62.90
2019-05-03T19:52:55.547Z,63.90
2019-05-03T19:55:24.658Z,64.40
2019-05-03T19:57:54.872Z,66.50
2019-05-03T20:00:26.002Z,64.90
2019-05-03T20:03:11.681Z,65.10
2019-05-03T20:05:48.151Z,65.60
2019-05-03T20:08:27.391Z,65.90
2019-05-03T20:11:14.819Z,67.00
2019-05-03T20:13:45.272Z,67.10
2019-05-03T20:16:15.471Z,65.80
2019-05-03T20:18:45.630Z,66.00
2019-05-03T20:21:15.179Z,66.20
2019-05-03T20:23:46.874Z,66.80
2019-05-03T20:26:15.333Z,67.10
2019-05-03T20:28:44.793Z,66.40
2019-05-03T20:31:14.649Z,66.80
2019-05-03T20:33:45.598Z,67.20
2019-05-03T20:36:14.323Z,67.90
2019-05-03T20:38:44.512Z,67.30
2019-05-03T20:41:14.816Z,67.00
2019-05-03T20:43:51.426Z,67.40
2019-05-03T20:46:22.056Z,67.10
2019-05-03T20:48:52.778Z,68.00
2019-05-03T20:51:22.065Z,67.80
2019-05-03T20:53:51.105Z,68.60
2019-05-03T20:56:20.095Z,68.50
2019-05-03T20:58:49.066Z,68.70
2019-05-03T21:01:18.218Z,70.10
2019-05-03T21:03:47.253Z,70.10
2019-05-03T21:06:16.273Z,69.90
2019-05-03T21:08:52.461Z,69.50
2019-05-03T21:11:15.924Z,70.20
2019-05-03T21:13:45.045Z,68.00
2019-05-03T21:16:15.713Z,68.10
2019-05-03T21:18:52.148Z,69.80
2019-05-03T21:21:24.745Z,69.00
2019-05-03T21:24:04.630Z,67.80
2019-05-03T21:26:34.566Z,67.80
2019-05-03T21:29:04.743Z,69.20
2019-05-03T21:31:35.212Z,68.90
2019-05-03T21:34:05.653Z,68.00
2019-05-03T21:36:35.066Z,68.80
2019-05-03T21:39:06.436Z,69.50
2019-05-03T21:41:37.972Z,69.10
2019-05-03T21:44:06.471Z,69.70
2019-05-03T21:46:39.906Z,68.90
2019-05-03T21:49:16.094Z,69.70
2019-05-03T21:51:45.143Z,69.30
2019-05-03T21:54:15.297Z,69.80
2019-05-03T21:56:44.875Z,70.60
2019-05-03T21:59:13.983Z,70.80
2019-05-03T22:01:45.589Z,71.40
2019-05-03T22:04:15.574Z,71.90
2019-05-03T22:06:45.098Z,70.60
2019-05-03T22:09:14.125Z,69.90
2019-05-03T22:11:44.683Z,71.40
2019-05-03T22:14:15.542Z,70.80
2019-05-03T22:17:04.598Z,71.70
2019-05-03T22:19:34.352Z,71.80
2019-05-03T22:22:05.479Z,71.50
2019-05-03T22:24:36.192Z,71.60
2019-05-03T22:27:07.093Z,72.30
2019-05-03T22:29:36.445Z,73.60
2019-05-03T22:32:05.527Z,73.70
2019-05-03T22:34:34.995Z,75.20
2019-05-03T22:37:04.753Z,73.70
2019-05-03T22:39:34.041Z,73.80
2019-05-03T22:42:04.497Z,74.20
2019-05-03T22:44:35.666Z,75.20
2019-05-03T22:47:05.488Z,75.00
2019-05-03T22:49:37.164Z,76.10
2019-05-03T22:52:05.491Z,76.10
2019-05-03T22:54:34.721Z,74.40
2019-05-03T22:57:04.839Z,73.80
2019-05-03T22:59:34.523Z,73.20
2019-05-03T23:02:03.757Z,72.70
2019-05-03T23:04:33.082Z,74.30
2019-05-03T23:07:02.080Z,74.30
2019-05-03T23:09:31.046Z,74.90
2019-05-03T23:12:00.370Z,75.20
2019-05-03T23:14:29.336Z,75.80
2019-05-03T23:16:58.297Z,75.10
2019-05-03T23:19:27.266Z,77.20
2019-05-03T23:22:12.555Z,75.40
2019-05-03T23:24:41.558Z,76.40
2019-05-03T23:27:10.512Z,75.90
2019-05-03T23:29:39.457Z,76.00
2019-05-03T23:32:08.493Z,74.70
2019-05-03T23:34:37.518Z,75.60
2019-05-03T23:37:06.502Z,76.10
2019-05-03T23:39:35.469Z,74.70
2019-05-03T23:42:05.207Z,74.60
2019-05-03T23:44:35.162Z,74.00
2019-05-03T23:47:14.914Z,75.60
2019-05-03T23:49:44.625Z,75.70
2019-05-03T23:52:27.406Z,76.20
2019-05-03T23:54:58.083Z,76.20
2019-05-03T23:57:27.040Z,75.40
2019-05-03T23:59:56.920Z,74.60
